Time;durP1;ratioP1;P1;durP2;ratioP2;P2;SDS_P1;SDS_P2;PMS_P1;PMS_P2;Temp;Humidity;BMP_temperature;BMP_pressure;BME280_temperature;BME280_humidity;BME280_pressure;Samples;Min_cycle;Max_cycle;Signal;HPM_P1;HPM_P2
2022/12/04 00:00:45;;;;;;;0.00;0.00;;;;;;;-2.37;100.00;98313.41;4923711;28;20620;-57
2022/12/04 00:03:12;;;;;;;0.00;0.00;;;;;;;-2.31;100.00;98311.44;4922495;28;20607;-57
2022/12/04 00:05:40;;;;;;;0.00;0.00;;;;;;;-2.30;100.00;98310.53;4922344;28;20225;-58
2022/12/04 00:08:08;;;;;;;0.00;0.00;;;;;;;-2.28;100.00;98309.59;4925986;28;20250;-59
2022/12/04 00:10:34;;;;;;;0.00;0.00;;;;;;;-2.21;100.00;98315.19;4922332;28;20247;-57
2022/12/04 00:13:01;;;;;;;0.00;0.00;;;;;;;-1.95;100.00;98308.72;4921807;28;20259;-59
2022/12/04 00:15:28;;;;;;;0.00;0.00;;;;;;;-1.94;100.00;98297.59;4920320;28;20231;-59
2022/12/04 00:17:57;;;;;;;0.00;0.00;;;;;;;-1.88;100.00;98300.75;4923672;28;20237;-60
2022/12/04 00:20:23;;;;;;;0.00;0.00;;;;;;;-1.82;100.00;98290.19;4925572;28;20323;-59
2022/12/04 00:22:50;;;;;;;0.00;0.00;;;;;;;-1.80;100.00;98293.50;4921909;28;20732;-60
2022/12/04 00:25:18;;;;;;;0.00;0.00;;;;;;;-1.71;100.00;98303.25;4924254;28;20235;-60
2022/12/04 00:27:45;;;;;;;0.00;0.00;;;;;;;-1.59;100.00;98304.31;4919096;28;20244;-58
2022/12/04 00:30:12;;;;;;;0.00;0.00;;;;;;;-1.50;100.00;98301.25;4938746;28;20245;-59
2022/12/04 00:32:39;;;;;;;0.00;0.00;;;;;;;-1.44;100.00;98307.81;4923649;28;20236;-59
2022/12/04 00:35:06;;;;;;;0.00;0.00;;;;;;;-1.38;100.00;98298.94;4917832;28;20925;-59
2022/12/04 00:37:33;;;;;;;0.00;0.00;;;;;;;-1.33;100.00;98302.09;4928625;28;20289;-60
2022/12/04 00:40:02;;;;;;;0.00;0.00;;;;;;;-1.26;100.00;98293.16;4925207;28;20257;-60
2022/12/04 00:42:30;;;;;;;0.00;0.00;;;;;;;-1.21;100.00;98295.47;4922019;28;20235;-61
2022/12/04 00:44:57;;;;;;;0.00;0.00;;;;;;;-1.21;100.00;98291.16;4922901;28;20260;-61
2022/12/04 00:47:23;;;;;;;0.00;0.00;;;;;;;-1.16;100.00;98297.78;4928872;28;20237;-60
2022/12/04 00:49:50;;;;;;;0.00;0.00;;;;;;;-1.15;100.00;98291.75;4929160;28;20246;-60
2022/12/04 00:52:17;;;;;;;0.00;0.00;;;;;;;-1.12;100.00;98297.53;4931331;28;20907;-60
2022/12/04 00:54:44;;;;;;;0.10;0.10;;;;;;;-1.09;100.00;98304.22;4928074;28;20234;-61
2022/12/04 00:57:10;;;;;;;0.00;0.00;;;;;;;-1.11;100.00;98301.75;4933155;28;20230;-59
2022/12/04 00:59:38;;;;;;;0.00;0.00;;;;;;;-1.15;100.00;98302.81;4932491;28;20282;-60
2022/12/04 01:02:05;;;;;;;0.00;0.00;;;;;;;-1.21;100.00;98296.28;4930731;28;20301;-61
2022/12/04 01:04:32;;;;;;;0.00;0.00;;;;;;;-1.26;100.00;98307.72;4930916;28;20229;-60
2022/12/04 01:06:58;;;;;;;0.00;0.00;;;;;;;-1.35;100.00;98301.34;4931596;28;20603;-59
2022/12/04 01:09:25;;;;;;;0.00;0.00;;;;;;;-1.40;100.00;98303.31;4934600;28;20240;-60
2022/12/04 01:11:51;;;;;;;0.00;0.00;;;;;;;-1.42;100.00;98302.59;4930670;28;20757;-60
2022/12/04 01:14:20;;;;;;;0.00;0.00;;;;;;;-1.44;100.00;98305.25;4932677;28;20220;-61
2022/12/04 01:16:48;;;;;;;0.00;0.00;;;;;;;-1.42;100.00;98307.69;4930616;28;20576;-61
2022/12/04 01:19:14;;;;;;;0.00;0.00;;;;;;;-1.41;100.00;98307.63;4928986;28;20225;-60
2022/12/04 01:21:43;;;;;;;0.00;0.00;;;;;;;-1.37;100.00;98305.72;4928164;28;20230;-60
2022/12/04 01:24:10;;;;;;;0.00;0.00;;;;;;;-1.32;100.00;98287.56;4935070;28;20239;-60
2022/12/04 01:26:36;;;;;;;0.00;0.00;;;;;;;-1.34;100.00;98291.03;4932494;28;20224;-59
2022/12/04 01:29:04;;;;;;;0.10;0.10;;;;;;;-1.30;100.00;98294.22;4930046;28;20570;-61
2022/12/04 01:31:30;;;;;;;0.00;0.00;;;;;;;-1.29;100.00;98293.31;4929528;28;20241;-59
2022/12/04 01:33:58;;;;;;;0.00;0.00;;;;;;;-1.25;100.00;98296.56;4933818;28;20624;-60
2022/12/04 01:36:27;;;;;;;0.00;0.00;;;;;;;-1.24;100.00;98299.03;4930230;28;20225;-60
2022/12/04 01:38:54;;;;;;;0.00;0.00;;;;;;;-1.23;100.00;98292.19;4926353;28;20249;-60
2022/12/04 01:41:24;;;;;;;0.00;0.00;;;;;;;-1.23;100.00;98297.31;4930170;28;20241;-60
2022/12/04 01:44:07;;;;;;;0.00;0.00;;;;;;;-1.14;100.00;98301.91;4923640;28;20221;-61
2022/12/04 01:46:34;;;;;;;0.00;0.00;;;;;;;-1.10;100.00;98297.44;4922797;28;20248;-60
2022/12/04 01:49:04;;;;;;;0.00;0.00;;;;;;;-1.09;100.00;98301.66;4940136;28;20240;-60
2022/12/04 01:51:35;;;;;;;0.00;0.00;;;;;;;-1.06;100.00;98302.28;4924512;28;20241;-61
2022/12/04 01:54:10;;;;;;;0.00;0.00;;;;;;;-1.01;100.00;98298.66;4931167;28;20339;-59
2022/12/04 01:56:41;;;;;;;0.00;0.00;;;;;;;-1.02;100.00;98294.44;4929206;28;20245;-60
2022/12/04 01:59:09;;;;;;;0.10;0.10;;;;;;;-1.06;100.00;98294.59;4928105;28;20236;-60
2022/12/04 02:01:42;;;;;;;0.00;0.00;;;;;;;-1.07;100.00;98299.81;4929277;28;20242;-61
2022/12/04 02:04:10;;;;;;;0.00;0.00;;;;;;;-1.09;100.00;98299.94;4930332;28;20234;-61
2022/12/04 02:06:36;;;;;;;0.00;0.00;;;;;;;-1.06;100.00;98293.78;4926512;28;20257;-60
2022/12/04 02:09:04;;;;;;;0.00;0.00;;;;;;;-1.03;100.00;98301.31;4928890;28;20248;-62
2022/12/04 02:11:37;;;;;;;0.00;0.00;;;;;;;-0.96;100.00;98306.91;4927621;28;20241;-61
2022/12/04 02:14:17;;;;;;;0.00;0.00;;;;;;;-0.93;100.00;98307.56;4932176;28;20230;-60
2022/12/04 02:16:50;;;;;;;0.00;0.00;;;;;;;-0.86;100.00;98312.34;4925284;28;20239;-60
2022/12/04 02:19:43;;;;;;;0.00;0.00;;;;;;;-0.84;100.00;98307.97;4931021;28;20237;-61
2022/12/04 02:22:24;;;;;;;0.00;0.00;;;;;;;-0.77;100.00;98304.97;4927540;28;20703;-59
2022/12/04 02:24:57;;;;;;;0.10;0.10;;;;;;;-0.73;100.00;98303.06;4929257;28;20249;-59
2022/12/04 02:27:36;;;;;;;0.00;0.00;;;;;;;-0.69;100.00;98294.28;4927538;28;20236;-62
2022/12/04 02:30:06;;;;;;;0.10;0.10;;;;;;;-0.62;100.00;98292.19;4925283;28;20605;-59
2022/12/04 02:32:41;;;;;;;0.00;0.00;;;;;;;-0.61;100.00;98296.41;4924692;28;20365;-59
2022/12/04 02:35:14;;;;;;;0.00;0.00;;;;;;;-0.60;100.00;98291.19;4926420;28;20243;-59
2022/12/04 02:37:45;;;;;;;0.00;0.00;;;;;;;-0.59;100.00;98286.88;4930522;28;20620;-60
2022/12/04 02:40:20;;;;;;;0.00;0.00;;;;;;;-0.59;100.00;98286.88;4928708;28;20232;-60
2022/12/04 02:42:52;;;;;;;0.00;0.00;;;;;;;-0.57;100.00;98286.81;4924493;28;20594;-60
2022/12/04 02:45:25;;;;;;;0.00;0.00;;;;;;;-0.56;100.00;98285.91;4927347;28;20238;-58
2022/12/04 02:47:53;;;;;;;0.00;0.00;;;;;;;-0.56;100.00;98289.28;4926857;28;20675;-59
2022/12/04 02:50:22;;;;;;;0.00;0.00;;;;;;;-0.55;100.00;98288.34;4925128;28;20235;-59
2022/12/04 02:52:53;;;;;;;0.00;0.00;;;;;;;-0.53;100.00;98291.66;4925245;28;20249;-59
2022/12/04 02:55:23;;;;;;;0.00;0.00;;;;;;;-0.55;100.00;98282.41;4929097;28;20233;-59
2022/12/04 02:57:54;;;;;;;0.00;0.00;;;;;;;-0.51;100.00;98284.69;4924117;28;20691;-59
2022/12/04 03:00:22;;;;;;;0.00;0.00;;;;;;;-0.46;100.00;98284.41;4943956;28;20243;-58
2022/12/04 03:02:54;;;;;;;0.00;0.00;;;;;;;-0.41;100.00;98276.47;4922324;28;20239;-59
2022/12/04 03:05:25;;;;;;;0.00;0.00;;;;;;;-0.41;100.00;98271.34;4933569;28;20233;-58
2022/12/04 03:07:56;;;;;;;0.00;0.00;;;;;;;-0.46;100.00;98267.31;4922561;28;20608;-59
2022/12/04 03:10:30;;;;;;;0.00;0.00;;;;;;;-0.47;100.00;98267.38;4931284;28;20236;-58
2022/12/04 03:13:02;;;;;;;0.00;0.00;;;;;;;-0.47;100.00;98264.81;4926191;28;20239;-60
2022/12/04 03:15:35;;;;;;;0.00;0.00;;;;;;;-0.49;100.00;98253.81;4924029;28;20231;-59
2022/12/04 03:18:09;;;;;;;0.00;0.00;;;;;;;-0.47;100.00;98270.78;4927527;28;20226;-58
2022/12/04 03:20:38;;;;;;;0.00;0.00;;;;;;;-0.47;100.00;98255.41;4926407;28;20232;-58
2022/12/04 03:23:11;;;;;;;0.00;0.00;;;;;;;-0.47;100.00;98257.97;4922264;28;20293;-58
2022/12/04 03:25:46;;;;;;;0.00;0.00;;;;;;;-0.45;100.00;98265.56;4926154;28;20242;-59
2022/12/04 03:28:20;;;;;;;0.00;0.00;;;;;;;-0.41;100.00;98273.91;4926735;28;20233;-60
2022/12/04 03:30:54;;;;;;;0.00;0.00;;;;;;;-0.38;100.00;98274.53;4930176;28;20230;-58
2022/12/04 03:33:27;;;;;;;0.00;0.00;;;;;;;-0.35;100.00;98258.16;4928312;28;20717;-58
2022/12/04 03:35:58;;;;;;;0.00;0.00;;;;;;;-0.35;100.00;98268.41;4926170;28;20339;-60
2022/12/04 03:38:31;;;;;;;0.00;0.00;;;;;;;-0.34;100.00;98265.75;4929668;28;20281;-60
2022/12/04 03:41:03;;;;;;;0.03;0.03;;;;;;;-0.35;100.00;98266.66;4927932;28;20301;-58
2022/12/04 03:43:35;;;;;;;0.00;0.00;;;;;;;-0.33;100.00;98253.78;4927752;28;20243;-58
2022/12/04 03:46:08;;;;;;;0.00;0.00;;;;;;;-0.31;100.00;98242.50;4930125;28;20245;-58
2022/12/04 03:48:41;;;;;;;0.00;0.00;;;;;;;-0.28;100.00;98241.50;4921905;28;20723;-59
2022/12/04 03:51:15;;;;;;;0.00;0.00;;;;;;;-0.27;100.00;98239.75;4926215;28;20242;-58
2022/12/04 03:53:46;;;;;;;0.00;0.00;;;;;;;-0.25;100.00;98241.31;4920937;28;20239;-58
2022/12/04 03:56:17;;;;;;;0.00;0.00;;;;;;;-0.22;100.00;98250.56;4928021;28;20236;-60
2022/12/04 03:58:46;;;;;;;0.10;0.10;;;;;;;-0.26;100.00;98247.34;4923310;28;20267;-58
2022/12/04 04:01:18;;;;;;;0.00;0.00;;;;;;;-0.20;100.00;98257.25;4924667;28;20234;-58
2022/12/04 04:03:49;;;;;;;0.00;0.00;;;;;;;-0.16;100.00;98263.00;4921781;28;20233;-60
2022/12/04 04:06:27;;;;;;;0.00;0.00;;;;;;;-0.13;100.00;98267.16;4928429;28;20232;-59
2022/12/04 04:08:58;;;;;;;0.00;0.00;;;;;;;-0.10;100.00;98259.28;4929604;28;20225;-59
2022/12/04 04:11:31;;;;;;;0.00;0.00;;;;;;;-0.10;100.00;98254.94;4928615;28;20241;-59
2022/12/04 04:25:13;;;;;;;0.00;0.00;;;;;;;-0.05;100.00;98260.63;4927392;28;20231;-58
2022/12/04 04:27:40;;;;;;;0.00;0.00;;;;;;;-0.04;100.00;98274.28;4932999;28;20583;-58
2022/12/04 04:32:59;;;;;;;0.00;0.00;;;;;;;-0.02;100.00;98264.75;5030076;23;20230;-57
2022/12/04 04:35:35;;;;;;;0.03;0.03;;;;;;;0.00;100.00;98278.31;4958624;28;20764;-58
2022/12/04 04:38:10;;;;;;;0.00;0.00;;;;;;;0.01;100.00;98277.38;4958970;28;20303;-59
2022/12/04 04:40:42;;;;;;;0.00;0.00;;;;;;;0.02;100.00;98273.91;4958961;28;20228;-57
2022/12/04 04:43:15;;;;;;;0.00;0.00;;;;;;;0.04;100.00;98274.63;4977447;28;20244;-58
2022/12/04 04:45:46;;;;;;;0.00;0.00;;;;;;;0.06;100.00;98277.94;4985207;28;20704;-58
2022/12/04 04:48:20;;;;;;;0.00;0.00;;;;;;;0.04;100.00;98279.75;4985443;28;20232;-57
2022/12/04 04:50:49;;;;;;;0.00;0.00;;;;;;;0.06;100.00;98280.50;4982383;28;20232;-58
2022/12/04 04:53:21;;;;;;;0.00;0.00;;;;;;;0.14;100.00;98286.00;4987142;28;20235;-57
2022/12/04 04:55:48;;;;;;;0.00;0.00;;;;;;;0.09;100.00;98288.00;4985047;28;20225;-55
2022/12/04 04:58:18;;;;;;;0.00;0.00;;;;;;;0.10;100.00;98284.53;4987756;28;20228;-56
2022/12/04 05:00:53;;;;;;;0.00;0.00;;;;;;;0.11;100.00;98293.06;4983970;28;20237;-55
2022/12/04 05:03:21;;;;;;;0.00;0.00;;;;;;;0.09;100.00;98292.34;4986938;28;20224;-58
2022/12/04 05:05:48;;;;;;;0.00;0.00;;;;;;;0.06;100.00;98289.94;4984841;28;20241;-57
2022/12/04 05:08:15;;;;;;;0.07;0.07;;;;;;;0.10;100.00;98296.53;4987046;28;20225;-57
2022/12/04 05:10:41;;;;;;;0.00;0.00;;;;;;;0.16;100.00;98296.19;4985171;28;20229;-57
2022/12/04 05:13:08;;;;;;;0.00;0.00;;;;;;;0.13;100.00;98293.78;4986052;28;20256;-57
2022/12/04 05:15:35;;;;;;;0.00;0.00;;;;;;;0.14;100.00;98296.25;4985063;28;20661;-58
2022/12/04 05:18:02;;;;;;;0.00;0.00;;;;;;;0.17;100.00;98297.81;4986047;28;20247;-55
2022/12/04 05:20:29;;;;;;;0.00;0.00;;;;;;;0.19;100.00;98293.44;4985391;28;20708;-57
2022/12/04 05:22:55;;;;;;;0.00;0.00;;;;;;;0.22;100.00;98288.09;4984838;28;20237;-58
2022/12/04 05:25:22;;;;;;;0.00;0.00;;;;;;;0.23;100.00;98286.34;4988109;28;20229;-57
2022/12/04 05:27:49;;;;;;;0.00;0.00;;;;;;;0.20;100.00;98284.81;4983111;28;20270;-57
2022/12/04 05:30:16;;;;;;;0.00;0.00;;;;;;;0.21;100.00;98285.63;4986377;28;20224;-57
2022/12/04 05:32:42;;;;;;;0.10;0.10;;;;;;;0.22;100.00;98288.09;4984803;28;20709;-57
2022/12/04 05:35:09;;;;;;;0.00;0.00;;;;;;;0.22;100.00;98284.69;4986156;28;20692;-57
2022/12/04 05:37:38;;;;;;;0.00;0.00;;;;;;;0.17;100.00;98295.25;4983807;28;20232;-57
2022/12/04 05:40:07;;;;;;;0.00;0.00;;;;;;;0.16;100.00;98298.75;4985471;28;20288;-57
2022/12/04 05:42:34;;;;;;;0.00;0.00;;;;;;;0.14;100.00;98291.13;4982544;28;20648;-57
2022/12/04 05:45:00;;;;;;;0.00;0.00;;;;;;;0.17;100.00;98299.56;4984266;28;20232;-58
2022/12/04 05:47:27;;;;;;;0.00;0.00;;;;;;;0.13;100.00;98292.03;4985903;28;20282;-57
2022/12/04 05:49:54;;;;;;;0.00;0.00;;;;;;;0.14;100.00;98296.25;4981064;28;20705;-57
2022/12/04 05:52:20;;;;;;;0.00;0.00;;;;;;;0.17;100.00;98297.81;4984350;28;20252;-57
2022/12/04 05:54:48;;;;;;;0.00;0.00;;;;;;;0.20;100.00;98294.25;4983378;28;20299;-57
2022/12/04 05:57:15;;;;;;;0.10;0.10;;;;;;;0.21;100.00;98291.59;4985750;28;20755;-58
2022/12/04 05:59:41;;;;;;;0.00;0.00;;;;;;;0.23;100.00;98288.91;4983953;28;20233;-56
2022/12/04 06:02:08;;;;;;;0.00;0.00;;;;;;;0.27;100.00;98293.78;4984990;28;20235;-57
2022/12/04 06:04:37;;;;;;;0.00;0.00;;;;;;;0.28;100.00;98294.59;4981847;28;20225;-57
2022/12/04 06:07:03;;;;;;;0.00;0.00;;;;;;;0.29;100.00;98281.69;4985833;28;20220;-58
2022/12/04 06:09:30;;;;;;;0.00;0.00;;;;;;;0.33;100.00;98284.88;4982091;28;20256;-56
2022/12/04 06:11:58;;;;;;;0.00;0.00;;;;;;;0.35;100.00;98280.47;4983898;28;20233;-58
2022/12/04 06:14:25;;;;;;;0.00;0.00;;;;;;;0.35;100.00;98288.16;4985873;28;20221;-57
2022/12/04 06:16:52;;;;;;;0.00;0.00;;;;;;;0.34;100.00;98283.94;4983138;28;20229;-57
2022/12/04 06:19:21;;;;;;;0.00;0.00;;;;;;;0.30;100.00;98292.75;4984646;28;20614;-57
2022/12/04 06:21:50;;;;;;;0.00;0.00;;;;;;;0.26;100.00;98283.59;4982200;28;20233;-59
2022/12/04 06:24:18;;;;;;;0.00;0.00;;;;;;;0.22;100.00;98284.69;4983618;28;20773;-57
2022/12/04 06:26:45;;;;;;;0.00;0.00;;;;;;;0.28;100.00;98284.31;4984125;28;20220;-57
2022/12/04 06:29:14;;;;;;;0.00;0.00;;;;;;;0.26;100.00;98284.44;4984361;28;20720;-57
2022/12/04 06:31:41;;;;;;;0.00;0.00;;;;;;;0.23;100.00;98288.91;4981878;28;20232;-57
2022/12/04 06:34:09;;;;;;;0.00;0.00;;;;;;;0.24;100.00;98299.09;4984514;28;20240;-58
2022/12/04 06:36:36;;;;;;;0.00;0.00;;;;;;;0.25;100.00;98289.66;4983236;28;20228;-57
2022/12/04 06:39:03;;;;;;;0.00;0.00;;;;;;;0.25;100.00;98293.06;4984865;28;20648;-58
2022/12/04 06:41:30;;;;;;;0.00;0.00;;;;;;;0.25;100.00;98298.19;4983020;28;20235;-56
2022/12/04 06:43:57;;;;;;;0.00;0.00;;;;;;;0.27;100.00;98287.81;4983893;28;20232;-59
2022/12/04 06:46:26;;;;;;;0.00;0.00;;;;;;;0.26;100.00;98293.88;4985611;28;20616;-58
2022/12/04 06:48:54;;;;;;;0.00;0.00;;;;;;;0.25;100.00;98294.78;4981891;28;20242;-57
2022/12/04 06:51:23;;;;;;;0.00;0.00;;;;;;;0.24;100.00;98288.84;4984219;28;20233;-58
2022/12/04 06:53:50;;;;;;;0.00;0.00;;;;;;;0.22;100.00;98282.13;4982042;28;20282;-57
2022/12/04 06:56:19;;;;;;;0.00;0.00;;;;;;;0.19;100.00;98283.16;4985323;28;20229;-58
2022/12/04 06:58:46;;;;;;;0.00;0.00;;;;;;;0.18;100.00;98288.38;4983014;28;20712;-59
2022/12/04 07:01:17;;;;;;;0.00;0.00;;;;;;;0.18;100.00;98293.50;4984143;28;20247;-55
2022/12/04 07:03:45;;;;;;;0.00;0.00;;;;;;;0.15;100.00;98291.97;4982905;28;20227;-59
2022/12/04 07:06:14;;;;;;;0.00;0.00;;;;;;;0.16;100.00;98291.03;4983048;28;20788;-59
2022/12/04 07:08:41;;;;;;;0.00;0.00;;;;;;;0.20;100.00;98294.25;4982698;28;20220;-57
2022/12/04 07:11:09;;;;;;;0.00;0.00;;;;;;;0.21;100.00;98304.44;4983608;28;20244;-59
2022/12/04 07:13:35;;;;;;;0.00;0.00;;;;;;;0.23;100.00;98310.28;4982731;28;20627;-58
2022/12/04 07:16:04;;;;;;;0.00;0.00;;;;;;;0.21;100.00;98307.00;4983610;28;20662;-58
2022/12/04 07:18:31;;;;;;;0.00;0.00;;;;;;;0.21;100.00;98306.16;4982996;28;20759;-58
2022/12/04 07:20:59;;;;;;;0.03;0.03;;;;;;;0.27;100.00;98310.91;4984383;28;20224;-59
2022/12/04 07:23:26;;;;;;;0.00;0.00;;;;;;;0.26;100.00;98304.97;4985044;28;20231;-57
2022/12/04 07:25:52;;;;;;;0.00;0.00;;;;;;;0.29;100.00;98303.94;4981898;28;20689;-59
2022/12/04 07:28:19;;;;;;;0.00;0.00;;;;;;;0.29;100.00;98301.38;4984793;28;20727;-58
2022/12/04 07:30:46;;;;;;;0.00;0.00;;;;;;;0.30;100.00;98300.47;4983008;28;20597;-58
2022/12/04 07:33:13;;;;;;;0.00;0.00;;;;;;;0.34;100.00;98321.66;4984766;28;20228;-59
2022/12/04 07:35:39;;;;;;;0.00;0.00;;;;;;;0.36;100.00;98318.06;4983034;28;20290;-58
2022/12/04 07:38:07;;;;;;;0.00;0.00;;;;;;;0.44;100.00;98315.03;4984660;28;20254;-57
2022/12/04 07:40:36;;;;;;;0.00;0.00;;;;;;;0.45;100.00;98311.56;4983534;28;20290;-56
2022/12/04 07:43:02;;;;;;;0.00;0.00;;;;;;;0.51;100.00;98318.88;4985426;28;20268;-57
2022/12/04 07:45:29;;;;;;;0.00;0.00;;;;;;;0.56;100.00;98310.88;4982837;28;20229;-58
2022/12/04 07:47:56;;;;;;;0.00;0.00;;;;;;;0.58;100.00;98316.75;4983461;28;20232;-57
2022/12/04 07:50:22;;;;;;;0.00;0.00;;;;;;;0.61;100.00;98313.97;4985495;28;20224;-58
2022/12/04 07:52:49;;;;;;;0.00;0.00;;;;;;;0.65;100.00;98323.16;4982544;28;20299;-59
2022/12/04 07:55:17;;;;;;;0.00;0.00;;;;;;;0.69;100.00;98326.34;4984877;28;20232;-58
2022/12/04 07:57:43;;;;;;;0.00;0.00;;;;;;;0.73;100.00;98326.06;4982017;28;20243;-58
2022/12/04 08:00:11;;;;;;;0.00;0.00;;;;;;;0.80;100.00;98328.25;4984019;28;20299;-58
2022/12/04 08:02:41;;;;;;;0.00;0.00;;;;;;;0.88;100.00;98328.59;4984304;28;20225;-58
2022/12/04 08:05:08;;;;;;;0.00;0.00;;;;;;;0.95;100.00;98326.44;4984160;28;20240;-57
2022/12/04 08:07:35;;;;;;;0.00;0.00;;;;;;;1.01;100.00;98328.63;4983359;28;20716;-58
2022/12/04 08:10:06;;;;;;;0.00;0.00;;;;;;;1.04;100.00;98323.31;4985707;28;20225;-58
2022/12/04 08:12:33;;;;;;;0.00;0.00;;;;;;;1.02;100.00;98325.97;4982499;28;20233;-58
2022/12/04 08:15:00;;;;;;;0.00;0.00;;;;;;;1.10;100.00;98322.06;4984037;28;20738;-58
2022/12/04 08:17:27;;;;;;;0.00;0.00;;;;;;;1.08;100.00;98319.63;4984981;28;20616;-57
2022/12/04 08:19:53;;;;;;;0.07;0.07;;;;;;;1.04;100.00;98323.31;4981047;28;20237;-58
2022/12/04 08:22:20;;;;;;;0.00;0.00;;;;;;;0.98;100.00;98327.09;4984955;28;20259;-59
2022/12/04 08:24:47;;;;;;;0.00;0.00;;;;;;;1.04;100.00;98323.31;4982866;28;20225;-59
2022/12/04 08:27:13;;;;;;;0.10;0.10;;;;;;;1.10;100.00;98325.47;4984428;28;20674;-59
2022/12/04 08:29:41;;;;;;;0.10;0.10;;;;;;;1.16;100.00;98329.38;4983343;28;20225;-58
2022/12/04 08:32:08;;;;;;;0.00;0.00;;;;;;;1.21;100.00;98324.78;4983973;28;20268;-59
2022/12/04 08:34:35;;;;;;;0.00;0.00;;;;;;;1.31;100.00;98328.41;4981367;28;20275;-59
2022/12/04 08:37:01;;;;;;;0.00;0.00;;;;;;;1.36;100.00;98335.00;4978788;28;20588;-58
2022/12/04 08:39:28;;;;;;;0.00;0.00;;;;;;;1.44;100.00;98335.31;4974469;28;20225;-58
2022/12/04 08:41:54;;;;;;;0.00;0.00;;;;;;;1.54;100.00;98333.00;4980072;28;20248;-58
2022/12/04 08:44:21;;;;;;;0.10;0.10;;;;;;;1.64;100.00;98333.19;4982980;28;20284;-59
2022/12/04 08:46:49;;;;;;;0.00;0.00;;;;;;;1.68;100.00;98327.75;4980086;28;20625;-58
2022/12/04 08:49:18;;;;;;;0.00;0.00;;;;;;;1.70;100.00;98338.75;4984194;28;20570;-59
2022/12/04 08:51:45;;;;;;;0.00;0.00;;;;;;;1.70;100.00;98328.47;4983222;28;20232;-59
2022/12/04 08:54:13;;;;;;;0.00;0.00;;;;;;;1.71;100.00;98330.09;4983935;28;20236;-57
2022/12/04 08:56:39;;;;;;;0.00;0.00;;;;;;;1.76;100.00;98340.09;4982452;28;20237;-59
2022/12/04 08:59:06;;;;;;;0.00;0.00;;;;;;;1.86;100.00;98336.00;4985790;28;20240;-58
2022/12/04 09:01:32;;;;;;;0.10;0.10;;;;;;;1.91;100.00;98335.69;4985965;28;20225;-59
2022/12/04 09:04:00;;;;;;;0.00;0.00;;;;;;;2.00;100.00;98327.34;4986495;28;20235;-57
2022/12/04 09:06:27;;;;;;;0.00;0.00;;;;;;;2.08;100.00;98326.84;4987787;28;20291;-58
2022/12/04 09:08:55;;;;;;;0.00;0.00;;;;;;;2.15;100.00;98333.19;4984707;28;20236;-59
2022/12/04 09:11:24;;;;;;;0.10;0.10;;;;;;;2.25;100.00;98329.97;4987683;28;20701;-56
2022/12/04 09:13:51;;;;;;;0.00;0.00;;;;;;;2.30;100.00;98331.34;4983120;28;20225;-59
2022/12/04 09:16:21;;;;;;;0.00;0.00;;;;;;;2.32;100.00;98336.38;4987017;28;20230;-59
2022/12/04 09:18:48;;;;;;;0.00;0.00;;;;;;;2.33;100.00;98332.84;4984912;28;20589;-59
2022/12/04 09:21:18;;;;;;;0.03;0.03;;;;;;;2.18;100.00;98325.25;4987283;28;20768;-58
2022/12/04 09:23:46;;;;;;;0.00;0.00;;;;;;;2.33;100.00;98318.25;4984260;28;20632;-57
2022/12/04 09:26:19;;;;;;;0.00;0.00;;;;;;;2.32;100.00;98318.34;4986973;28;20244;-58
2022/12/04 09:28:46;;;;;;;0.00;0.00;;;;;;;2.26;100.00;98311.88;4983356;28;20252;-59
2022/12/04 09:31:13;;;;;;;0.10;0.10;;;;;;;2.34;100.00;98313.91;4986091;28;20300;-58
2022/12/04 09:33:39;;;;;;;0.00;0.00;;;;;;;2.51;100.00;98318.72;4983208;28;20875;-57
2022/12/04 09:36:06;;;;;;;0.10;0.10;;;;;;;2.66;100.00;98318.56;4986074;28;20241;-57
2022/12/04 09:38:34;;;;;;;0.00;0.00;;;;;;;2.77;100.00;98321.22;4984810;28;20233;-57
2022/12/04 09:41:10;;;;;;;0.10;0.10;;;;;;;2.86;100.00;98324.06;4984146;28;20234;-57
2022/12/04 09:43:46;;;;;;;0.10;0.10;;;;;;;2.89;100.00;98316.91;4984855;28;20227;-58
2022/12/04 09:46:21;;;;;;;0.10;0.10;;;;;;;2.95;100.00;98318.25;4986400;28;20232;-57
2022/12/04 09:48:49;;;;;;;0.00;0.00;;;;;;;3.00;100.00;98328.22;4984561;28;20883;-57
2022/12/04 09:51:19;;;;;;;0.00;0.00;;;;;;;3.14;100.00;98320.31;4987261;28;20610;-56
2022/12/04 09:53:52;;;;;;;0.00;0.00;;;;;;;3.12;100.00;98318.81;4984232;28;20283;-57
2022/12/04 09:56:21;;;;;;;0.00;0.00;;;;;;;3.29;100.00;98318.38;4986011;28;20237;-58
2022/12/04 09:58:52;;;;;;;0.00;0.00;;;;;;;3.29;99.35;98320.16;4984240;28;20233;-59
2022/12/04 10:01:23;;;;;;;0.10;0.10;;;;;;;3.15;96.22;98316.81;4986550;28;20260;-58
2022/12/04 10:03:52;;;;;;;0.07;0.07;;;;;;;3.09;96.87;98307.78;4983762;28;20241;-59
2022/12/04 10:06:24;;;;;;;0.00;0.00;;;;;;;2.94;98.55;98304.53;4986792;28;20229;-58
2022/12/04 10:08:59;;;;;;;0.10;0.10;;;;;;;2.87;98.68;98298.16;4983527;28;20237;-58
2022/12/04 10:11:39;;;;;;;0.10;0.10;;;;;;;2.87;100.00;98305.91;4986206;28;20753;-57
2022/12/04 10:14:16;;;;;;;0.10;0.10;;;;;;;2.90;100.00;98305.69;4983133;28;20271;-57
2022/12/04 10:16:55;;;;;;;0.00;0.00;;;;;;;2.97;100.00;98311.22;4984446;28;20229;-57
2022/12/04 10:19:31;;;;;;;0.10;0.10;;;;;;;3.07;100.00;98313.97;4986318;28;20251;-59
2022/12/04 10:22:10;;;;;;;0.10;0.10;;;;;;;3.11;100.00;98320.53;4984300;28;20294;-57
2022/12/04 10:24:43;;;;;;;0.10;0.10;;;;;;;3.03;100.00;98318.53;4984034;28;20221;-58
2022/12/04 10:27:16;;;;;;;0.00;0.00;;;;;;;3.06;100.00;98305.41;4985935;28;20729;-58
2022/12/04 10:29:48;;;;;;;0.00;0.00;;;;;;;3.17;99.59;98306.41;4984286;28;20232;-58
2022/12/04 10:32:20;;;;;;;0.00;0.00;;;;;;;3.12;100.00;98296.41;4985513;28;20579;-58
2022/12/04 10:34:49;;;;;;;0.00;0.00;;;;;;;2.98;99.75;98297.41;4984166;28;20228;-57
2022/12/04 10:37:15;;;;;;;0.00;0.00;;;;;;;3.00;99.75;98295.53;4983309;28;20226;-57
2022/12/04 10:39:50;;;;;;;0.10;0.10;;;;;;;2.90;100.00;98302.28;4982579;28;20224;-57
2022/12/04 10:42:26;;;;;;;0.00;0.00;;;;;;;2.93;100.00;98308.03;4985352;28;20291;-59
2022/12/04 10:44:53;;;;;;;0.10;0.10;;;;;;;2.84;100.00;98311.28;4982671;28;20719;-58
2022/12/04 10:47:22;;;;;;;0.00;0.00;;;;;;;2.87;100.00;98311.06;4986125;28;20229;-58
2022/12/04 10:49:59;;;;;;;0.10;0.10;;;;;;;2.86;100.00;98301.66;4982771;28;20267;-57
2022/12/04 10:52:25;;;;;;;0.00;0.00;;;;;;;2.82;100.00;98307.16;4985779;28;20220;-59
2022/12/04 10:54:57;;;;;;;0.03;0.03;;;;;;;2.62;100.00;98302.50;4983308;28;20229;-58
2022/12/04 10:57:35;;;;;;;0.00;0.00;;;;;;;2.61;100.00;98307.75;4985674;28;20732;-59
2022/12/04 11:00:04;;;;;;;0.00;0.00;;;;;;;2.61;100.00;98308.59;4983698;28;20286;-55
2022/12/04 11:02:33;;;;;;;0.00;0.00;;;;;;;2.65;100.00;98304.84;4983545;28;20233;-57
2022/12/04 11:05:02;;;;;;;0.00;0.00;;;;;;;2.60;100.00;98293.22;4985027;28;20233;-57
2022/12/04 11:07:30;;;;;;;0.03;0.03;;;;;;;2.59;100.00;98304.47;4984837;28;20248;-58
2022/12/04 11:10:03;;;;;;;0.10;0.10;;;;;;;2.64;100.00;98302.38;4981523;28;20253;-58
2022/12/04 11:12:31;;;;;;;0.10;0.10;;;;;;;2.56;100.00;98296.94;4982910;28;20316;-58
2022/12/04 11:15:03;;;;;;;0.00;0.00;;;;;;;2.55;100.00;98297.88;4984960;28;20229;-58
2022/12/04 11:17:30;;;;;;;0.00;0.00;;;;;;;2.42;100.00;98296.16;4983654;28;20736;-57
2022/12/04 11:20:01;;;;;;;0.00;0.00;;;;;;;2.36;100.00;98306.88;4985143;28;20309;-60
2022/12/04 11:22:28;;;;;;;0.00;0.00;;;;;;;2.45;100.00;98308.03;4985221;28;20221;-57
2022/12/04 11:24:56;;;;;;;0.00;0.00;;;;;;;2.50;100.00;98308.53;4982907;28;20236;-58
2022/12/04 11:27:30;;;;;;;0.00;0.00;;;;;;;2.49;100.00;98315.41;4985402;28;20225;-59
2022/12/04 11:29:57;;;;;;;0.00;0.00;;;;;;;2.50;100.00;98314.47;4982266;28;20232;-58
2022/12/04 11:32:27;;;;;;;0.00;0.00;;;;;;;2.42;100.00;98321.91;4984745;28;20247;-58
2022/12/04 11:34:57;;;;;;;0.00;0.00;;;;;;;2.38;100.00;98332.56;4982365;28;20240;-57
2022/12/04 11:37:27;;;;;;;0.00;0.00;;;;;;;2.41;100.00;98322.03;4985523;28;20894;-59
2022/12/04 11:39:55;;;;;;;0.00;0.00;;;;;;;2.54;100.00;98315.09;4982690;28;20240;-58
2022/12/04 11:42:25;;;;;;;0.00;0.00;;;;;;;2.62;100.00;98310.25;4985427;28;20233;-58
2022/12/04 11:44:55;;;;;;;0.10;0.10;;;;;;;2.67;100.00;98309.91;4980794;28;20237;-58
2022/12/04 11:47:24;;;;;;;0.00;0.00;;;;;;;2.60;100.00;98306.09;4985235;28;20268;-58
2022/12/04 11:50:02;;;;;;;0.00;0.00;;;;;;;2.72;100.00;98310.41;4982505;28;20236;-58
2022/12/04 11:52:44;;;;;;;0.00;0.00;;;;;;;2.72;100.00;98299.25;4984719;28;20231;-58
2022/12/04 11:55:17;;;;;;;0.00;0.00;;;;;;;2.57;100.00;98308.91;4982456;28;20303;-58